メインページ
METAR-TAF:

METAR-TAF

空港 :

ベン・グリオン国際空港

テルアビブ / ベン・グリオン, イスラエル

緯度: 32-00N, 経度: 034-54E, 海抜: 40m

現時点の気象観測

当レポートは7分前の04:50(UTC)に作成
変向風 1kt
気温 16°C
湿度 59%
気圧 1016 hPa
視程10km以上
1,500メートル以下は雲なし、積乱雲なし

METAR: LLBG 040450Z VRB01KT CAVOK 16/08 Q1016 NOSIG

時間: 07:57 (04:57 UTC)

予報

当レポートは5時間51分前の23:06(UTC)に作成
予報は04日の 00時(UTC)から 04日の 24時(UTC)まで有効
北東の風 5kt
視程10km以上
1,500メートル以下は雲なし、積乱雲なし
04日の 06時(UTC)から 04日の 09時(UTC)まで一時的に
の風 12kt
04日の 17時(UTC)から 04日の 19時(UTC)まで徐々に
の風 8kt
04日の 22時(UTC)から 04日の 24時(UTC)まで一時的に
東/南東の風 15kt

TAF: LLBG 032306Z 0400/0424 04005KT CAVOK TEMPO 0406/0409 09012KT BECMG 0417/0419 10008KT TEMPO 0422/0424 12015KT TX30/0412Z TN12/0403Z

4,000以上の空港の気象観測と天気予報(METAR報とTAF報)

利用可能な観測所は地図上に黄色い丸と赤い丸で示す。

丸の上にカーソルを重ねると観測所名を参照できる。

次にクリックすると気象観測と天気予報を参照できる。

マップの切り替え:黒色「×」印の緑ボタンをクリックして拡大、「-」印の緑ボタンをクリックして縮小、緑色の三角印をクリックして隣りの地図に切り替え


METAR-TAF: